Time;durP1;ratioP1;P1;durP2;ratioP2;P2;SDS_P1;SDS_P2;PMS_P1;PMS_P2;Temp;Humidity;BMP_temperature;BMP_pressure;BME280_temperature;BME280_humidity;BME280_pressure;Samples;Min_cycle;Max_cycle;Signal;HPM_P1;HPM_P2
2023/06/03 00:01:23;;;;;;;;;;;;;;;12.55;90.30;102143.63;5017444;28;19924;-56
2023/06/03 00:03:48;;;;;;;;;;;;;;;12.51;89.70;102137.50;5020253;28;20368;-56
2023/06/03 00:06:14;;;;;;;;;;;;;;;12.48;90.51;102141.63;5015685;28;20008;-55
2023/06/03 00:08:39;;;;;;;;;;;;;;;12.43;89.95;102141.44;5024538;28;20356;-56
2023/06/03 00:11:05;;;;;;;;;;;;;;;12.39;89.44;102141.28;5013362;28;19943;-55
2023/06/03 00:13:30;;;;;;;;;;;;;;;12.36;90.16;102131.69;5017134;28;20012;-56
2023/06/03 00:15:55;;;;;;;;;;;;;;;12.38;89.95;102135.25;5018265;28;19921;-56
2023/06/03 00:18:20;;;;;;;;;;;;;;;12.40;88.38;102132.72;5021663;28;20192;-57
2023/06/03 00:20:47;;;;;;;;;;;;;;;12.40;85.73;102137.88;5019924;28;19945;-55
2023/06/03 00:23:15;;;;;;;;;;;;;;;12.42;88.79;102131.06;5022446;28;19917;-55
2023/06/03 00:25:41;;;;;;;;;;;;;;;12.42;85.92;102138.81;5020433;28;19921;-57
2023/06/03 00:28:06;;;;;;;;;;;;;;;12.42;88.10;102136.22;5023256;28;19968;-55
2023/06/03 00:30:31;;;;;;;;;;;;;;;12.38;88.48;102132.66;5019484;28;19924;-54
2023/06/03 00:32:56;;;;;;;;;;;;;;;12.33;89.12;102132.47;5014792;28;20371;-57
2023/06/03 00:35:22;;;;;;;;;;;;;;;12.30;89.04;102137.47;5013221;28;20299;-55
2023/06/03 00:37:47;;;;;;;;;;;;;;;12.25;89.68;102136.41;5021400;28;20007;-57
2023/06/03 00:40:12;;;;;;;;;;;;;;;12.22;89.26;102133.72;5023522;28;20050;-57
2023/06/03 00:42:38;;;;;;;;;;;;;;;12.20;90.31;102132.78;5017617;28;19917;-55
2023/06/03 00:45:03;;;;;;;;;;;;;;;12.16;88.81;102130.00;5020563;28;19917;-55
2023/06/03 00:47:29;;;;;;;;;;;;;;;12.14;88.54;102134.22;5016599;28;19921;-56
2023/06/03 00:49:54;;;;;;;;;;;;;;;12.12;87.84;102135.84;5015576;28;20423;-56
2023/06/03 00:52:22;;;;;;;;;;;;;;;12.10;88.11;102132.31;5017070;28;19921;-55
2023/06/03 00:54:51;;;;;;;;;;;;;;;12.08;88.40;102129.69;5015109;28;19920;-56
2023/06/03 00:57:18;;;;;;;;;;;;;;;12.04;87.19;102130.38;5014994;28;20372;-55
2023/06/03 00:59:43;;;;;;;;;;;;;;;12.03;89.27;102133.75;5017614;28;19913;-55
2023/06/03 01:02:08;;;;;;;;;;;;;;;12.00;87.27;102129.34;5021885;28;19924;-55
2023/06/03 01:04:34;;;;;;;;;;;;;;;12.02;86.55;102137.16;5027142;28;19917;-57
2023/06/03 01:07:12;;;;;;;;;;;;;;;12.03;88.23;102132.06;5026721;28;19960;-55
2023/06/03 01:09:44;;;;;;;;;;;;;;;12.05;87.19;102124.38;5025996;28;19921;-56
2023/06/03 01:12:15;;;;;;;;;;;;;;;12.05;88.72;102130.41;5021484;28;19921;-56
2023/06/03 01:14:40;;;;;;;;;;;;;;;12.04;87.77;102132.94;5024953;28;19913;-55
2023/06/03 01:17:09;;;;;;;;;;;;;;;12.02;88.93;102127.72;5016596;28;20016;-56
2023/06/03 01:19:48;;;;;;;;;;;;;;;12.02;86.75;102129.44;5016671;28;20380;-45
2023/06/03 01:22:18;;;;;;;;;;;;;;;12.01;86.42;102133.72;5013686;28;20012;-46
2023/06/03 01:24:44;;;;;;;;;;;;;;;12.01;84.66;102135.38;5017364;28;20008;-48
2023/06/03 01:27:10;;;;;;;;;;;;;;;11.99;88.50;102134.44;5018947;28;20394;-47
2023/06/03 01:29:40;;;;;;;;;;;;;;;11.97;87.38;102134.38;5016230;28;19921;-44
2023/06/03 01:32:07;;;;;;;;;;;;;;;11.98;86.66;102133.56;5014174;28;19936;-46
2023/06/03 01:34:32;;;;;;;;;;;;;;;11.97;87.64;102138.66;5013322;28;19921;-46
2023/06/03 01:36:58;;;;;;;;;;;;;;;11.96;87.66;102135.22;5012543;28;19917;-45
2023/06/03 01:39:24;;;;;;;;;;;;;;;11.95;86.35;102140.28;5012150;28;19918;-45
2023/06/03 01:41:51;;;;;;;;;;;;;;;11.92;85.45;102132.44;5020757;28;20430;-45
2023/06/03 01:44:16;;;;;;;;;;;;;;;11.92;85.71;102137.56;5017681;28;19921;-45
2023/06/03 01:46:41;;;;;;;;;;;;;;;11.90;86.22;102139.22;5021392;28;19922;-43
2023/06/03 01:49:07;;;;;;;;;;;;;;;11.88;87.42;102138.25;5019232;28;20008;-45
2023/06/03 01:51:33;;;;;;;;;;;;;;;11.82;86.92;102137.16;5021384;28;19923;-45
2023/06/03 01:53:58;;;;;;;;;;;;;;;11.79;85.09;102134.44;5016960;28;19918;-44
2023/06/03 01:56:24;;;;;;;;;;;;;;;11.77;86.27;102142.94;5014306;28;19925;-44
2023/06/03 01:58:49;;;;;;;;;;;;;;;11.71;86.55;102133.25;5016715;28;19918;-45
2023/06/03 02:01:15;;;;;;;;;;;;;;;11.70;86.34;102139.19;5013880;28;19913;-44
2023/06/03 02:03:40;;;;;;;;;;;;;;;11.66;86.71;102139.88;5015312;28;19927;-46
2023/06/03 02:06:05;;;;;;;;;;;;;;;11.65;86.86;102132.06;5019588;28;19925;-48
2023/06/03 02:08:31;;;;;;;;;;;;;;;11.62;85.54;102131.94;5022080;28;19963;-44
2023/06/03 02:10:56;;;;;;;;;;;;;;;11.60;85.70;102129.31;5022861;28;20298;-44
2023/06/03 02:13:21;;;;;;;;;;;;;;;11.60;87.00;102128.44;5021332;28;19955;-45
2023/06/03 02:15:46;;;;;;;;;;;;;;;11.61;88.11;102123.34;5019850;28;20151;-44
2023/06/03 02:18:12;;;;;;;;;;;;;;;11.62;87.64;102126.78;5023095;28;20001;-44
2023/06/03 02:20:37;;;;;;;;;;;;;;;11.61;86.76;102125.03;5015866;28;19926;-45
2023/06/03 02:23:02;;;;;;;;;;;;;;;11.61;88.08;102125.91;5020661;28;19928;-44
2023/06/03 02:25:28;;;;;;;;;;;;;;;11.61;86.39;102125.91;5015262;28;19940;-44
2023/06/03 02:27:54;;;;;;;;;;;;;;;11.61;87.95;102120.75;5016714;28;19921;-45
2023/06/03 02:30:20;;;;;;;;;;;;;;;11.63;85.27;102125.97;5015750;28;19968;-45
2023/06/03 02:32:45;;;;;;;;;;;;;;;11.62;86.02;102119.94;5014801;28;19945;-44
2023/06/03 02:35:11;;;;;;;;;;;;;;;11.64;85.45;102126.03;5014005;28;19949;-44
2023/06/03 02:37:36;;;;;;;;;;;;;;;11.63;87.18;102126.84;5011587;28;19940;-45
2023/06/03 02:40:01;;;;;;;;;;;;;;;11.60;87.66;102116.44;5012104;28;19920;-43
2023/06/03 02:42:27;;;;;;;;;;;;;;;11.61;87.29;102130.19;5019667;28;19928;-44
2023/06/03 02:44:52;;;;;;;;;;;;;;;11.59;87.46;102130.13;5027879;28;19918;-44
2023/06/03 02:47:17;;;;;;;;;;;;;;;11.58;87.33;102120.59;5018692;28;19979;-44
2023/06/03 02:49:44;;;;;;;;;;;;;;;11.58;86.76;102123.19;5014253;28;20027;-43
2023/06/03 02:52:09;;;;;;;;;;;;;;;11.59;85.74;102127.56;5014804;28;20016;-44
2023/06/03 02:54:35;;;;;;;;;;;;;;;11.55;85.78;102123.06;5012500;28;20011;-44
2023/06/03 02:57:00;;;;;;;;;;;;;;;11.53;86.35;102127.28;5013034;28;19936;-45
2023/06/03 02:59:25;;;;;;;;;;;;;;;11.52;86.12;102122.91;5013749;28;19969;-45
2023/06/03 03:01:50;;;;;;;;;;;;;;;11.49;85.88;102127.94;5022566;28;19922;-44
2023/06/03 03:04:16;;;;;;;;;;;;;;;11.46;86.07;102130.38;5012074;28;19925;-44
2023/06/03 03:06:41;;;;;;;;;;;;;;;11.45;86.30;102128.63;5011626;28;19925;-44
2023/06/03 03:09:07;;;;;;;;;;;;;;;11.42;85.88;102128.50;5009769;28;19917;-44
2023/06/03 03:11:32;;;;;;;;;;;;;;;11.41;86.52;102132.75;5013068;28;20299;-44
2023/06/03 03:13:58;;;;;;;;;;;;;;;11.37;87.31;102123.13;5014379;28;19931;-45
2023/06/03 03:16:23;;;;;;;;;;;;;;;11.34;86.68;102128.13;5013482;28;19921;-48
2023/06/03 03:18:49;;;;;;;;;;;;;;;11.32;87.22;102127.19;5012260;28;19953;-44
2023/06/03 03:21:14;;;;;;;;;;;;;;;11.31;87.94;102137.44;5025026;28;20417;-44
2023/06/03 03:23:40;;;;;;;;;;;;;;;11.29;87.00;102132.22;5024464;28;20028;-44
2023/06/03 03:26:06;;;;;;;;;;;;;;;11.26;87.99;102138.09;5024997;28;19921;-43
2023/06/03 03:28:31;;;;;;;;;;;;;;;11.23;86.47;102137.97;5022549;28;19921;-45
2023/06/03 03:30:57;;;;;;;;;;;;;;;11.22;86.77;102135.28;5020337;28;19922;-44
2023/06/03 03:33:22;;;;;;;;;;;;;;;11.21;87.43;102139.56;5023226;28;19917;-44
2023/06/03 03:35:49;;;;;;;;;;;;;;;11.17;86.86;102137.69;5015666;28;20020;-45
2023/06/03 03:38:14;;;;;;;;;;;;;;;11.16;86.68;102138.50;5017581;28;20007;-44
2023/06/03 03:40:40;;;;;;;;;;;;;;;11.15;87.69;102141.84;5014672;28;20013;-45
2023/06/03 03:43:13;;;;;;;;;;;;;;;11.13;87.98;102137.47;5016983;28;19917;-57
2023/06/03 03:45:38;;;;;;;;;;;;;;;11.12;87.42;102144.31;5012843;28;20339;-56
2023/06/03 03:48:05;;;;;;;;;;;;;;;11.11;87.34;102152.84;5016195;28;19963;-57
2023/06/03 03:50:46;;;;;;;;;;;;;;;11.11;87.04;102151.97;5017232;28;19921;-56
2023/06/03 03:53:21;;;;;;;;;;;;;;;11.11;88.33;102146.81;5019224;28;20446;-57
2023/06/03 03:55:47;;;;;;;;;;;;;;;11.08;87.74;102151.81;5019109;28;19960;-56
2023/06/03 03:58:18;;;;;;;;;;;;;;;11.09;87.58;102148.41;5018613;28;20391;-56
2023/06/03 04:00:43;;;;;;;;;;;;;;;11.10;87.03;102151.09;5017297;28;20000;-57
2023/06/03 04:03:11;;;;;;;;;;;;;;;11.11;88.20;102152.84;5016306;28;20036;-56
2023/06/03 04:05:36;;;;;;;;;;;;;;;11.09;87.43;102146.72;5017971;28;20402;-56
2023/06/03 04:08:02;;;;;;;;;;;;;;;11.13;86.14;102152.91;5016771;28;19921;-57
2023/06/03 04:10:28;;;;;;;;;;;;;;;11.14;87.44;102147.81;5028400;28;20417;-56
2023/06/03 04:12:55;;;;;;;;;;;;;;;11.16;86.68;102145.31;5024272;28;20317;-55
2023/06/03 04:15:30;;;;;;;;;;;;;;;11.17;86.33;102147.97;5028335;28;19967;-57
2023/06/03 04:17:55;;;;;;;;;;;;;;;11.22;86.08;102149.09;5021362;28;19950;-57
2023/06/03 04:20:28;;;;;;;;;;;;;;;11.23;86.14;102153.41;5022167;28;19913;-57
2023/06/03 04:22:53;;;;;;;;;;;;;;;11.28;86.94;102151.94;5013794;28;20262;-55
2023/06/03 04:25:18;;;;;;;;;;;;;;;11.54;85.98;102150.53;5022286;28;20777;-45
2023/06/03 04:27:44;;;;;;;;;;;;;;;12.16;84.31;102159.25;5018570;28;19917;-43
2023/06/03 04:30:09;;;;;;;;;;;;;;;12.76;81.98;102157.41;5016698;28;20632;-45
2023/06/03 04:32:34;;;;;;;;;;;;;;;13.36;80.10;102154.59;5012778;28;19917;-45
2023/06/03 04:35:00;;;;;;;;;;;;;;;13.86;78.06;102155.53;5011184;28;19976;-46
2023/06/03 04:37:26;;;;;;;;;;;;;;;14.18;76.96;102154.03;5012935;28;20001;-46
2023/06/03 04:39:51;;;;;;;;;;;;;;;14.53;76.14;102157.84;5017184;28;20255;-47
2023/06/03 04:42:17;;;;;;;;;;;;;;;14.87;75.00;102161.50;5014531;28;19917;-48
2023/06/03 04:44:42;;;;;;;;;;;;;;;15.05;71.15;102161.19;5014715;28;20375;-48
2023/06/03 04:47:11;;;;;;;;;;;;;;;15.31;72.86;102155.06;5019952;28;20376;-46
2023/06/03 04:49:39;;;;;;;;;;;;;;;15.57;71.68;102158.38;5015351;28;19921;-45
2023/06/03 04:52:09;;;;;;;;;;;;;;;15.77;71.97;102161.56;5020334;28;19913;-45
2023/06/03 04:54:40;;;;;;;;;;;;;;;15.93;66.93;102162.88;5025749;28;19970;-45
2023/06/03 04:57:05;;;;;;;;;;;;;;;16.11;70.02;102158.16;5023609;28;20318;-44
2023/06/03 04:59:30;;;;;;;;;;;;;;;16.19;67.70;102167.00;5021866;28;19978;-46
2023/06/03 05:01:56;;;;;;;;;;;;;;;16.21;67.70;102159.28;5021446;28;19925;-46
2023/06/03 05:04:22;;;;;;;;;;;;;;;16.12;68.44;102152.13;5021793;28;19932;-47
2023/06/03 05:06:48;;;;;;;;;;;;;;;16.04;66.05;102166.63;5019676;28;19922;-44
2023/06/03 05:09:14;;;;;;;;;;;;;;;16.06;67.43;102160.63;5021685;28;19913;-44
2023/06/03 05:11:39;;;;;;;;;;;;;;;16.28;65.54;102169.84;5015004;28;20305;-45
2023/06/03 05:14:06;;;;;;;;;;;;;;;16.67;64.23;102169.06;5012949;28;19961;-44
2023/06/03 05:16:32;;;;;;;;;;;;;;;16.87;63.11;102160.06;5016266;28;19924;-45
2023/06/03 05:18:57;;;;;;;;;;;;;;;16.88;62.26;102156.63;5013796;28;19918;-45
2023/06/03 05:21:22;;;;;;;;;;;;;;;16.63;63.63;102154.28;5015020;28;19968;-45
2023/06/03 05:23:47;;;;;;;;;;;;;;;16.35;65.01;102156.19;5018870;28;19932;-44
2023/06/03 05:26:12;;;;;;;;;;;;;;;16.32;63.28;102157.84;5023584;28;19921;-47
2023/06/03 05:28:38;;;;;;;;;;;;;;;16.40;62.29;102160.63;5017449;28;20010;-44
2023/06/03 05:31:03;;;;;;;;;;;;;;;16.47;62.02;102163.41;5017893;28;19967;-44
2023/06/03 05:33:29;;;;;;;;;;;;;;;16.54;61.24;102164.44;5022134;28;20308;-45
2023/06/03 05:35:54;;;;;;;;;;;;;;;16.77;63.92;102162.41;5016739;28;20000;-45
2023/06/03 05:38:20;;;;;;;;;;;;;;;16.76;63.72;102160.66;5019897;28;20023;-44
2023/06/03 05:40:46;;;;;;;;;;;;;;;16.97;62.91;102160.25;5015318;28;19991;-47
2023/06/03 05:43:11;;;;;;;;;;;;;;;17.05;60.91;102164.81;5018075;28;20345;-44
2023/06/03 05:45:37;;;;;;;;;;;;;;;17.31;60.44;102164.47;5015374;28;20408;-46
2023/06/03 05:48:02;;;;;;;;;;;;;;;17.38;58.06;102164.63;5015683;28;19926;-46
2023/06/03 05:50:27;;;;;;;;;;;;;;;17.42;57.02;102165.59;5016130;28;19921;-46
2023/06/03 05:52:55;;;;;;;;;;;;;;;17.44;59.07;102169.09;5015183;28;20004;-45
2023/06/03 05:55:20;;;;;;;;;;;;;;;17.47;57.96;102155.25;5021942;28;19970;-44
2023/06/03 05:57:45;;;;;;;;;;;;;;;17.62;56.45;102161.66;5017823;28;19917;-46
2023/06/03 06:00:11;;;;;;;;;;;;;;;17.65;55.39;102155.63;5018709;28;19936;-46
2023/06/03 06:02:36;;;;;;;;;;;;;;;17.89;57.21;102158.72;5020966;28;19923;-45
2023/06/03 06:05:01;;;;;;;;;;;;;;;17.88;53.19;102159.56;5019137;28;20460;-47
2023/06/03 06:07:26;;;;;;;;;;;;;;;17.94;55.97;102164.91;5019760;28;20368;-45
2023/06/03 06:09:52;;;;;;;;;;;;;;;18.18;54.68;102155.78;5010463;28;19925;-47
2023/06/03 06:12:17;;;;;;;;;;;;;;;18.15;52.27;102172.22;5025325;28;19943;-46
2023/06/03 06:14:42;;;;;;;;;;;;;;;18.15;56.05;102161.81;5025373;28;19924;-46
2023/06/03 06:17:07;;;;;;;;;;;;;;;18.20;54.89;102160.19;5019535;28;19972;-44
2023/06/03 06:19:36;;;;;;;;;;;;;;;18.28;51.44;102167.22;5016686;28;19972;-47
2023/06/03 06:22:02;;;;;;;;;;;;;;;18.33;53.53;102170.81;5013695;28;20430;-48
2023/06/03 06:24:27;;;;;;;;;;;;;;;18.57;52.91;102170.31;5021490;28;19913;-45
2023/06/03 06:26:53;;;;;;;;;;;;;;;18.69;52.62;102166.22;5015266;28;20296;-46
2023/06/03 06:29:18;;;;;;;;;;;;;;;18.74;52.21;102172.34;5013998;28;19914;-45
2023/06/03 06:31:44;;;;;;;;;;;;;;;18.85;52.25;102177.72;5018127;28;20381;-44
2023/06/03 06:34:09;;;;;;;;;;;;;;;19.14;50.27;102177.28;5019449;28;20069;-48
2023/06/03 06:36:37;;;;;;;;;;;;;;;19.20;48.63;102173.00;5022607;28;20048;-45
2023/06/03 06:39:04;;;;;;;;;;;;;;;19.27;51.34;102169.63;5019876;28;20300;-45
2023/06/03 06:41:36;;;;;;;;;;;;;;;19.37;47.77;102168.03;5021142;28;19917;-48
2023/06/03 06:44:01;;;;;;;;;;;;;;;19.43;48.63;102170.72;5020367;28;19919;-45
2023/06/03 06:46:26;;;;;;;;;;;;;;;19.45;49.79;102170.72;5019372;28;19922;-47
2023/06/03 06:48:51;;;;;;;;;;;;;;;19.34;47.17;102173.19;5018570;28;19972;-46
2023/06/03 06:51:19;;;;;;;;;;;;;;;19.33;47.79;102170.56;5014051;28;19925;-47
2023/06/03 06:53:47;;;;;;;;;;;;;;;19.39;48.36;102170.63;5012315;28;19975;-45
2023/06/03 06:56:13;;;;;;;;;;;;;;;19.20;48.38;102175.63;5020573;28;20391;-46
2023/06/03 06:58:39;;;;;;;;;;;;;;;19.12;47.62;102172.03;5021889;28;19921;-45
2023/06/03 07:01:08;;;;;;;;;;;;;;;19.17;46.18;102170.38;5022454;28;19918;-46
2023/06/03 07:03:33;;;;;;;;;;;;;;;19.25;46.24;102170.47;5018325;28;19917;-45
2023/06/03 07:05:59;;;;;;;;;;;;;;;19.29;47.19;102177.47;5021415;28;20031;-46
2023/06/03 07:08:24;;;;;;;;;;;;;;;19.15;44.84;102177.28;5021101;28;20257;-45
2023/06/03 07:10:50;;;;;;;;;;;;;;;19.13;46.99;102172.91;5019666;28;20442;-45
2023/06/03 07:13:15;;;;;;;;;;;;;;;19.35;47.49;102174.06;5019593;28;19940;-44
2023/06/03 07:15:41;;;;;;;;;;;;;;;19.49;44.28;102170.78;5017319;28;19943;-44
2023/06/03 07:18:08;;;;;;;;;;;;;;;19.56;47.03;102169.13;5022913;28;19924;-44
2023/06/03 07:20:34;;;;;;;;;;;;;;;19.69;42.92;102171.03;5012456;28;20352;-46
2023/06/03 07:23:01;;;;;;;;;;;;;;;19.60;45.53;102164.84;5014960;28;20378;-45
2023/06/03 07:25:29;;;;;;;;;;;;;;;19.50;45.19;102164.69;5010176;28;19913;-44
2023/06/03 07:27:54;;;;;;;;;;;;;;;19.71;43.99;102163.22;5015196;28;19945;-49
2023/06/03 07:30:20;;;;;;;;;;;;;;;20.04;42.42;102178.38;5014887;28;19963;-48
2023/06/03 07:32:45;;;;;;;;;;;;;;;20.22;43.21;102175.94;5012241;28;19929;-44
2023/06/03 07:35:12;;;;;;;;;;;;;;;20.34;42.24;102173.44;5012836;28;20431;-45
2023/06/03 07:37:38;;;;;;;;;;;;;;;20.29;42.82;102177.75;5013314;28;19917;-45
2023/06/03 07:40:12;;;;;;;;;;;;;;;20.23;43.49;102175.06;5013194;28;20075;-47
2023/06/03 07:42:38;;;;;;;;;;;;;;;20.23;41.22;102177.69;5010118;28;20233;-48
2023/06/03 07:45:04;;;;;;;;;;;;;;;20.23;40.35;102174.19;5012657;28;19917;-45
2023/06/03 07:47:30;;;;;;;;;;;;;;;20.09;41.29;102176.69;5016990;28;19930;-46
2023/06/03 07:49:58;;;;;;;;;;;;;;;20.10;41.02;102162.78;5014578;28;19924;-45
2023/06/03 07:52:23;;;;;;;;;;;;;;;20.06;41.14;102168.81;5013606;28;19917;-48
2023/06/03 07:54:49;;;;;;;;;;;;;;;20.23;40.93;102169.84;5014423;28;21451;-48
2023/06/03 07:57:14;;;;;;;;;;;;;;;20.39;41.26;102173.47;5012331;28;19925;-45
2023/06/03 07:59:52;;;;;;;;;;;;;;;20.51;40.22;102173.59;5012163;28;20000;-48
2023/06/03 08:02:17;;;;;;;;;;;;;;;20.63;38.28;102180.66;5019846;28;19928;-49
2023/06/03 08:04:43;;;;;;;;;;;;;;;20.71;38.11;102175.50;5014215;28;20000;-48
2023/06/03 08:07:09;;;;;;;;;;;;;;;20.65;36.08;102173.72;5016561;28;19960;-49
2023/06/03 08:09:35;;;;;;;;;;;;;;;20.47;36.77;102181.41;5018674;28;20012;-46
2023/06/03 08:12:02;;;;;;;;;;;;;;;20.60;36.80;102176.28;5020140;28;20425;-47
2023/06/03 08:14:29;;;;;;;;;;;;;;;20.61;36.28;102178.03;5018975;28;20020;-46
2023/06/03 08:16:55;;;;;;;;;;;;;;;20.52;35.03;102180.59;5015004;28;19917;-48
2023/06/03 08:19:20;;;;;;;;;;;;;;;20.49;37.47;102170.09;5015043;28;20360;-45
2023/06/03 08:21:46;;;;;;;;;;;;;;;20.55;36.45;102167.53;5018715;28;19970;-50
2023/06/03 08:24:12;;;;;;;;;;;;;;;20.70;37.02;102171.13;5014770;28;20389;-49
2023/06/03 08:26:38;;;;;;;;;;;;;;;20.83;35.42;102167.72;5016222;28;20273;-48
2023/06/03 08:29:04;;;;;;;;;;;;;;;20.57;35.57;102171.03;5023333;28;19924;-49
2023/06/03 08:31:32;;;;;;;;;;;;;;;20.55;35.71;102175.38;5017777;28;19918;-50
2023/06/03 08:33:57;;;;;;;;;;;;;;;20.50;34.97;102170.97;5014330;28;19921;-49
2023/06/03 08:36:22;;;;;;;;;;;;;;;20.65;35.81;102167.59;5015685;28;19918;-48
2023/06/03 08:38:47;;;;;;;;;;;;;;;20.78;35.71;102167.69;5022512;28;20406;-49
2023/06/03 08:41:13;;;;;;;;;;;;;;;20.87;33.78;102164.28;5015922;28;20031;-44
2023/06/03 08:43:43;;;;;;;;;;;;;;;20.83;34.92;102166.00;5021519;28;19921;-45
2023/06/03 08:46:14;;;;;;;;;;;;;;;20.89;33.89;102168.63;5016594;28;19939;-48
2023/06/03 08:48:39;;;;;;;;;;;;;;;20.83;32.91;102171.22;5015496;28;20442;-57
2023/06/03 08:51:05;;;;;;;;;;;;;;;20.69;32.56;102167.66;5015370;28;19968;-45
2023/06/03 08:53:40;;;;;;;;;;;;;;;20.47;34.37;102173.56;5016736;28;19924;-46
2023/06/03 08:56:06;;;;;;;;;;;;;;;20.56;34.26;102160.56;5017632;28;19913;-49
2023/06/03 08:58:34;;;;;;;;;;;;;;;20.60;33.52;102155.38;5015366;28;20371;-44
2023/06/03 09:01:01;;;;;;;;;;;;;;;20.48;33.27;102168.34;5016752;28;19925;-48
2023/06/03 09:03:26;;;;;;;;;;;;;;;20.26;34.39;102174.22;5013710;28;19921;-47
2023/06/03 09:05:52;;;;;;;;;;;;;;;20.29;34.73;102166.41;5022867;28;19925;-44
2023/06/03 09:08:18;;;;;;;;;;;;;;;20.31;34.45;102172.50;5016713;28;19964;-45
2023/06/03 09:10:47;;;;;;;;;;;;;;;20.19;34.09;102168.06;5020308;28;19974;-48
2023/06/03 09:13:13;;;;;;;;;;;;;;;20.15;35.49;102171.53;5014417;28;19939;-45
2023/06/03 09:15:41;;;;;;;;;;;;;;;20.15;33.97;102173.25;5021457;28;19922;-43
2023/06/03 09:18:06;;;;;;;;;;;;;;;19.97;34.24;102177.44;5022733;28;20330;-47
2023/06/03 09:20:31;;;;;;;;;;;;;;;19.87;34.68;102172.97;5015943;28;19968;-46
2023/06/03 09:22:57;;;;;;;;;;;;;;;19.91;34.45;102173.91;5018454;28;19928;-46
2023/06/03 09:25:22;;;;;;;;;;;;;;;19.98;34.74;102178.31;5013344;28;20029;-46
2023/06/03 09:27:47;;;;;;;;;;;;;;;19.83;34.66;102179.88;5016411;28;19929;-48
2023/06/03 09:30:12;;;;;;;;;;;;;;;19.83;34.08;102176.41;5014321;28;19918;-48
2023/06/03 09:32:38;;;;;;;;;;;;;;;19.85;34.33;102177.31;5022586;28;20004;-47
2023/06/03 09:35:06;;;;;;;;;;;;;;;19.80;34.60;102171.16;5023611;28;20346;-45
2023/06/03 09:37:32;;;;;;;;;;;;;;;19.76;34.21;102172.84;5012987;28;19949;-45
2023/06/03 09:39:57;;;;;;;;;;;;;;;19.81;34.38;102170.31;5021044;28;20000;-44
2023/06/03 09:42:22;;;;;;;;;;;;;;;19.87;34.84;102164.28;5019220;28;20376;-45
2023/06/03 09:44:55;;;;;;;;;;;;;;;19.95;33.14;102176.53;5017276;28;19918;-45
2023/06/03 09:47:21;;;;;;;;;;;;;;;19.98;33.17;102171.34;5017388;28;19973;-48
2023/06/03 09:50:06;;;;;;;;;;;;;;;19.98;33.28;102167.88;5015833;28;19967;-44
2023/06/03 09:52:32;;;;;;;;;;;;;;;20.13;31.96;102159.28;5018221;28;19965;-48
2023/06/03 09:55:05;;;;;;;;;;;;;;;20.16;31.63;102160.22;5017932;28;19921;-46
2023/06/03 09:57:31;;;;;;;;;;;;;;;20.02;30.82;102170.53;5017477;28;20038;-45
2023/06/03 10:00:10;;;;;;;;;;;;;;;19.96;29.48;102165.25;5016705;28;20343;-50
2023/06/03 10:02:40;;;;;;;;;;;;;;;20.00;29.22;102171.34;5019399;28;20398;-48
2023/06/03 10:05:25;;;;;;;;;;;;;;;19.89;30.49;102170.38;5018983;28;19925;-47
2023/06/03 10:07:50;;;;;;;;;;;;;;;20.02;31.25;102169.63;5015934;28;20315;-47
2023/06/03 10:10:15;;;;;;;;;;;;;;;20.22;31.22;102168.09;5016095;28;20040;-47
2023/06/03 10:12:41;;;;;;;;;;;;;;;20.25;30.13;102175.06;5018306;28;19925;-47
2023/06/03 10:15:06;;;;;;;;;;;;;;;20.36;28.95;102171.69;5014053;28;20395;-45
2023/06/03 10:17:31;;;;;;;;;;;;;;;20.30;26.85;102174.25;5026900;28;20307;-45
2023/06/03 10:19:57;;;;;;;;;;;;;;;20.23;26.87;102176.81;5027366;28;19917;-48
2023/06/03 10:22:25;;;;;;;;;;;;;;;20.27;27.14;102171.63;5019829;28;19944;-46
2023/06/03 10:24:53;;;;;;;;;;;;;;;20.34;27.78;102162.09;5020720;28;19928;-47
2023/06/03 10:27:19;;;;;;;;;;;;;;;20.31;28.63;102159.44;5012371;28;19917;-47
2023/06/03 10:29:44;;;;;;;;;;;;;;;20.42;28.02;102155.19;5015653;28;20404;-48
2023/06/03 10:32:12;;;;;;;;;;;;;;;20.57;27.00;102154.50;5012022;28;19940;-48
2023/06/03 10:34:41;;;;;;;;;;;;;;;20.58;26.95;102156.25;5012634;28;19967;-45
2023/06/03 10:37:08;;;;;;;;;;;;;;;20.63;26.03;102144.09;5012765;28;19917;-46
2023/06/03 10:39:33;;;;;;;;;;;;;;;20.65;25.96;102147.56;5013255;28;19917;-45
2023/06/03 10:41:59;;;;;;;;;;;;;;;20.74;26.48;102146.75;5018640;28;19928;-47
2023/06/03 10:44:25;;;;;;;;;;;;;;;20.87;24.89;102152.09;5020817;28;19953;-47
2023/06/03 10:47:09;;;;;;;;;;;;;;;20.95;25.21;102152.13;5020747;28;19964;-46
2023/06/03 10:49:38;;;;;;;;;;;;;;;21.01;27.10;102146.06;5015610;28;19917;-45
2023/06/03 10:52:18;;;;;;;;;;;;;;;21.20;26.37;102145.25;5017810;28;19914;-45
2023/06/03 10:54:55;;;;;;;;;;;;;;;21.32;26.55;102147.97;5014011;28;20444;-45
2023/06/03 10:57:25;;;;;;;;;;;;;;;21.17;27.30;102150.47;5014004;28;19921;-45
2023/06/03 10:59:51;;;;;;;;;;;;;;;21.26;26.98;102141.81;5013231;28;19914;-46
2023/06/03 11:02:17;;;;;;;;;;;;;;;21.29;27.25;102152.28;5012324;28;19925;-44
2023/06/03 11:04:42;;;;;;;;;;;;;;;21.10;26.00;102149.56;5019260;28;19928;-48
2023/06/03 11:07:27;;;;;;;;;;;;;;;21.05;26.36;102147.78;5009899;28;19928;-46
2023/06/03 11:09:54;;;;;;;;;;;;;;;21.08;26.24;102142.59;5015185;28;19913;-45
2023/06/03 11:12:20;;;;;;;;;;;;;;;21.36;26.65;102139.28;5017764;28;20116;-47
2023/06/03 11:14:48;;;;;;;;;;;;;;;21.40;26.91;102138.41;5013028;28;20029;-44
2023/06/03 11:17:18;;;;;;;;;;;;;;;21.39;25.73;102144.50;5009755;28;19921;-45
2023/06/03 11:19:55;;;;;;;;;;;;;;;21.34;25.91;102140.97;5020032;28;19991;-45
2023/06/03 11:22:29;;;;;;;;;;;;;;;21.44;25.59;102149.75;5018775;28;19992;-46
2023/06/03 11:24:55;;;;;;;;;;;;;;;21.46;25.92;102160.22;5018831;28;19924;-44
2023/06/03 11:27:20;;;;;;;;;;;;;;;21.54;26.03;102138.47;5014760;28;19918;-45
2023/06/03 11:29:46;;;;;;;;;;;;;;;21.49;25.81;102140.19;5013421;28;19928;-46
2023/06/03 11:32:18;;;;;;;;;;;;;;;21.53;24.83;102151.50;5012821;28;19925;-46
2023/06/03 11:34:45;;;;;;;;;;;;;;;21.45;25.80;102143.66;5013452;28;19913;-46
2023/06/03 11:37:19;;;;;;;;;;;;;;;21.48;26.23;102140.16;5011286;28;19957;-48
2023/06/03 11:39:58;;;;;;;;;;;;;;;21.61;26.02;102147.19;5010805;28;19922;-47
2023/06/03 11:42:23;;;;;;;;;;;;;;;21.63;25.32;102148.94;5015741;28;19913;-46
2023/06/03 11:44:48;;;;;;;;;;;;;;;21.72;25.54;102131.50;5017886;28;20128;-48
2023/06/03 11:47:14;;;;;;;;;;;;;;;21.90;25.61;102139.38;5022384;28;20389;-45
2023/06/03 11:49:39;;;;;;;;;;;;;;;22.09;24.12;102124.59;5018081;28;20342;-47
2023/06/03 11:52:05;;;;;;;;;;;;;;;21.92;24.38;102129.81;5022514;28;20002;-44
2023/06/03 11:54:30;;;;;;;;;;;;;;;21.80;25.43;102135.91;5017985;28;19918;-47
2023/06/03 11:56:58;;;;;;;;;;;;;;;21.82;26.25;102126.28;5019791;28;19959;-46
2023/06/03 11:59:30;;;;;;;;;;;;;;;21.95;25.86;102140.28;5020454;28;19948;-49
2023/06/03 12:02:00;;;;;;;;;;;;;;;22.11;25.83;102128.09;5024854;28;20000;-47
2023/06/03 12:04:25;;;;;;;;;;;;;;;22.28;26.07;102123.75;5014794;28;19936;-46
2023/06/03 12:06:50;;;;;;;;;;;;;;;22.20;24.96;102139.47;5013294;28;20372;-45
2023/06/03 12:09:17;;;;;;;;;;;;;;;22.21;25.39;102122.00;5014597;28;20014;-46
2023/06/03 12:11:43;;;;;;;;;;;;;;;22.35;24.03;102122.84;5030467;28;19963;-48
2023/06/03 12:14:08;;;;;;;;;;;;;;;22.21;24.93;102124.63;5031148;28;20025;-47
2023/06/03 12:16:35;;;;;;;;;;;;;;;22.12;25.43;102127.22;5012289;28;19940;-46
2023/06/03 12:19:02;;;;;;;;;;;;;;;22.20;25.65;102125.47;5013694;28;20265;-56
2023/06/03 12:21:28;;;;;;;;;;;;;;;22.28;25.32;102108.03;5019542;28;19936;-57
2023/06/03 12:23:54;;;;;;;;;;;;;;;22.44;24.60;102127.22;5019119;28;19932;-57
2023/06/03 12:26:20;;;;;;;;;;;;;;;22.37;24.62;102123.72;5021651;28;19929;-58
2023/06/03 12:28:46;;;;;;;;;;;;;;;22.26;24.91;102116.75;5019847;28;19932;-57
2023/06/03 12:31:14;;;;;;;;;;;;;;;22.31;25.72;102126.34;5020638;28;19922;-56
2023/06/03 12:33:40;;;;;;;;;;;;;;;22.26;26.34;102128.09;5019458;28;19921;-57